sensor_id;sensor_type;location;lat;lon;timestamp;temperature;humidity
20815;DHT22;10568;48.176;16.316;2023-04-03T00:02:23;5.20;99.90
20815;DHT22;10568;48.176;16.316;2023-04-03T00:04:49;5.20;99.90
20815;DHT22;10568;48.176;16.316;2023-04-03T00:07:15;5.20;99.90
20815;DHT22;10568;48.176;16.316;2023-04-03T00:09:41;5.20;99.90
20815;DHT22;10568;48.176;16.316;2023-04-03T00:12:06;5.20;99.90
20815;DHT22;10568;48.176;16.316;2023-04-03T00:14:32;5.20;99.90
20815;DHT22;10568;48.176;16.316;2023-04-03T00:16:58;5.20;99.90
20815;DHT22;10568;48.176;16.316;2023-04-03T00:19:24;5.30;99.90
20815;DHT22;10568;48.176;16.316;2023-04-03T00:21:49;5.20;99.90
20815;DHT22;10568;48.176;16.316;2023-04-03T00:24:16;5.30;99.90
20815;DHT22;10568;48.176;16.316;2023-04-03T00:26:41;5.30;99.90
20815;DHT22;10568;48.176;16.316;2023-04-03T00:29:07;5.30;99.90
20815;DHT22;10568;48.176;16.316;2023-04-03T00:31:33;5.30;99.90
20815;DHT22;10568;48.176;16.316;2023-04-03T00:33:58;5.30;99.90
20815;DHT22;10568;48.176;16.316;2023-04-03T00:36:24;5.30;99.90
20815;DHT22;10568;48.176;16.316;2023-04-03T00:38:50;5.30;99.90
20815;DHT22;10568;48.176;16.316;2023-04-03T00:41:16;5.30;99.90
20815;DHT22;10568;48.176;16.316;2023-04-03T00:43:42;5.30;99.90
20815;DHT22;10568;48.176;16.316;2023-04-03T00:46:08;5.20;99.90
20815;DHT22;10568;48.176;16.316;2023-04-03T00:48:40;5.20;99.90
20815;DHT22;10568;48.176;16.316;2023-04-03T00:51:11;5.20;99.90
20815;DHT22;10568;48.176;16.316;2023-04-03T00:53:50;5.20;99.90
20815;DHT22;10568;48.176;16.316;2023-04-03T00:56:42;5.20;99.90
20815;DHT22;10568;48.176;16.316;2023-04-03T00:59:12;5.20;99.90
20815;DHT22;10568;48.176;16.316;2023-04-03T01:01:40;5.20;99.90
20815;DHT22;10568;48.176;16.316;2023-04-03T01:04:29;5.10;99.90
20815;DHT22;10568;48.176;16.316;2023-04-03T01:06:58;5.10;99.90
20815;DHT22;10568;48.176;16.316;2023-04-03T01:09:26;5.10;99.90
20815;DHT22;10568;48.176;16.316;2023-04-03T01:11:52;5.10;99.90
20815;DHT22;10568;48.176;16.316;2023-04-03T01:14:17;5.10;99.90
20815;DHT22;10568;48.176;16.316;2023-04-03T01:16:52;5.10;99.90
20815;DHT22;10568;48.176;16.316;2023-04-03T01:19:19;5.10;99.90
20815;DHT22;10568;48.176;16.316;2023-04-03T01:24:32;5.10;99.90
20815;DHT22;10568;48.176;16.316;2023-04-03T01:27:00;5.10;99.90
20815;DHT22;10568;48.176;16.316;2023-04-03T01:29:26;5.10;99.90
20815;DHT22;10568;48.176;16.316;2023-04-03T01:31:54;5.10;99.90
20815;DHT22;10568;48.176;16.316;2023-04-03T01:34:21;5.10;99.90
20815;DHT22;10568;48.176;16.316;2023-04-03T01:36:47;5.10;99.90
20815;DHT22;10568;48.176;16.316;2023-04-03T01:39:14;5.10;99.90
20815;DHT22;10568;48.176;16.316;2023-04-03T01:41:40;5.10;99.90
20815;DHT22;10568;48.176;16.316;2023-04-03T01:44:06;5.10;99.90
20815;DHT22;10568;48.176;16.316;2023-04-03T01:46:32;5.10;99.90
20815;DHT22;10568;48.176;16.316;2023-04-03T01:48:58;5.00;99.90
20815;DHT22;10568;48.176;16.316;2023-04-03T01:51:23;5.10;99.90
20815;DHT22;10568;48.176;16.316;2023-04-03T01:53:49;5.00;99.90
20815;DHT22;10568;48.176;16.316;2023-04-03T01:56:15;5.00;99.90
20815;DHT22;10568;48.176;16.316;2023-04-03T01:58:41;5.10;99.90
20815;DHT22;10568;48.176;16.316;2023-04-03T02:01:06;5.00;99.90
20815;DHT22;10568;48.176;16.316;2023-04-03T02:03:32;5.00;99.90
20815;DHT22;10568;48.176;16.316;2023-04-03T02:05:59;5.00;99.90
20815;DHT22;10568;48.176;16.316;2023-04-03T02:08:24;5.00;99.90
20815;DHT22;10568;48.176;16.316;2023-04-03T02:10:51;5.00;99.90
20815;DHT22;10568;48.176;16.316;2023-04-03T02:13:17;5.00;99.90
20815;DHT22;10568;48.176;16.316;2023-04-03T02:15:43;5.00;99.90
20815;DHT22;10568;48.176;16.316;2023-04-03T02:18:09;5.00;99.90
20815;DHT22;10568;48.176;16.316;2023-04-03T02:20:35;5.00;99.90
20815;DHT22;10568;48.176;16.316;2023-04-03T02:23:01;5.00;99.90
20815;DHT22;10568;48.176;16.316;2023-04-03T02:25:27;5.00;99.90
20815;DHT22;10568;48.176;16.316;2023-04-03T02:27:52;5.00;99.90
20815;DHT22;10568;48.176;16.316;2023-04-03T02:30:18;5.00;99.90
20815;DHT22;10568;48.176;16.316;2023-04-03T02:32:45;5.00;99.90
20815;DHT22;10568;48.176;16.316;2023-04-03T02:35:11;5.00;99.90
20815;DHT22;10568;48.176;16.316;2023-04-03T02:37:37;5.00;99.90
20815;DHT22;10568;48.176;16.316;2023-04-03T02:40:04;5.00;99.90
20815;DHT22;10568;48.176;16.316;2023-04-03T02:42:30;5.00;99.90
20815;DHT22;10568;48.176;16.316;2023-04-03T02:44:56;5.00;99.90
20815;DHT22;10568;48.176;16.316;2023-04-03T02:47:22;5.00;99.90
20815;DHT22;10568;48.176;16.316;2023-04-03T02:49:48;4.90;99.90
20815;DHT22;10568;48.176;16.316;2023-04-03T02:52:14;5.00;99.90
20815;DHT22;10568;48.176;16.316;2023-04-03T02:54:40;5.00;99.90
20815;DHT22;10568;48.176;16.316;2023-04-03T02:57:06;5.00;99.90
20815;DHT22;10568;48.176;16.316;2023-04-03T02:59:35;4.90;99.90
20815;DHT22;10568;48.176;16.316;2023-04-03T03:02:01;5.00;99.90
20815;DHT22;10568;48.176;16.316;2023-04-03T03:04:27;5.00;99.90
20815;DHT22;10568;48.176;16.316;2023-04-03T03:06:53;4.90;99.90
20815;DHT22;10568;48.176;16.316;2023-04-03T03:09:18;4.90;99.90
20815;DHT22;10568;48.176;16.316;2023-04-03T03:11:44;4.90;99.90
20815;DHT22;10568;48.176;16.316;2023-04-03T03:14:10;4.90;99.90
20815;DHT22;10568;48.176;16.316;2023-04-03T03:16:36;4.90;99.90
20815;DHT22;10568;48.176;16.316;2023-04-03T03:19:02;4.90;99.90
20815;DHT22;10568;48.176;16.316;2023-04-03T03:21:28;4.90;99.90
20815;DHT22;10568;48.176;16.316;2023-04-03T03:23:54;4.90;99.90
20815;DHT22;10568;48.176;16.316;2023-04-03T03:26:20;4.90;99.90
20815;DHT22;10568;48.176;16.316;2023-04-03T03:28:46;4.90;99.90
20815;DHT22;10568;48.176;16.316;2023-04-03T03:31:12;4.90;99.90
20815;DHT22;10568;48.176;16.316;2023-04-03T03:33:38;4.90;99.90
20815;DHT22;10568;48.176;16.316;2023-04-03T03:36:04;4.90;99.90
20815;DHT22;10568;48.176;16.316;2023-04-03T03:38:29;4.90;99.90
20815;DHT22;10568;48.176;16.316;2023-04-03T03:40:55;5.30;99.90
20815;DHT22;10568;48.176;16.316;2023-04-03T03:43:21;4.90;99.90
20815;DHT22;10568;48.176;16.316;2023-04-03T03:45:51;4.90;99.90
20815;DHT22;10568;48.176;16.316;2023-04-03T03:48:18;4.90;99.90
20815;DHT22;10568;48.176;16.316;2023-04-03T03:50:44;4.90;99.90
20815;DHT22;10568;48.176;16.316;2023-04-03T03:53:10;4.90;99.90
20815;DHT22;10568;48.176;16.316;2023-04-03T03:55:36;4.80;99.90
20815;DHT22;10568;48.176;16.316;2023-04-03T03:58:02;4.90;99.90
20815;DHT22;10568;48.176;16.316;2023-04-03T04:00:29;4.80;99.90
20815;DHT22;10568;48.176;16.316;2023-04-03T04:02:55;4.90;99.90
20815;DHT22;10568;48.176;16.316;2023-04-03T04:05:21;4.90;99.90
20815;DHT22;10568;48.176;16.316;2023-04-03T04:07:47;4.90;99.90
20815;DHT22;10568;48.176;16.316;2023-04-03T04:10:13;4.80;99.90
20815;DHT22;10568;48.176;16.316;2023-04-03T04:12:39;4.80;99.90
20815;DHT22;10568;48.176;16.316;2023-04-03T04:15:05;5.50;99.90
20815;DHT22;10568;48.176;16.316;2023-04-03T04:17:31;4.80;99.90
20815;DHT22;10568;48.176;16.316;2023-04-03T04:19:57;4.80;99.90
20815;DHT22;10568;48.176;16.316;2023-04-03T04:22:23;4.70;99.90
20815;DHT22;10568;48.176;16.316;2023-04-03T04:24:49;4.80;99.90
20815;DHT22;10568;48.176;16.316;2023-04-03T04:27:14;4.70;99.90
20815;DHT22;10568;48.176;16.316;2023-04-03T04:29:41;4.70;99.90
20815;DHT22;10568;48.176;16.316;2023-04-03T04:32:07;4.70;99.90
20815;DHT22;10568;48.176;16.316;2023-04-03T04:34:34;4.70;99.90
20815;DHT22;10568;48.176;16.316;2023-04-03T04:37:00;4.70;99.90
20815;DHT22;10568;48.176;16.316;2023-04-03T04:39:26;4.70;99.90
20815;DHT22;10568;48.176;16.316;2023-04-03T04:41:51;4.70;99.90
20815;DHT22;10568;48.176;16.316;2023-04-03T04:44:17;4.60;99.90
20815;DHT22;10568;48.176;16.316;2023-04-03T04:46:43;4.70;99.90
20815;DHT22;10568;48.176;16.316;2023-04-03T04:49:09;4.60;99.90
20815;DHT22;10568;48.176;16.316;2023-04-03T04:51:34;4.60;99.90
20815;DHT22;10568;48.176;16.316;2023-04-03T04:54:00;4.60;99.90
20815;DHT22;10568;48.176;16.316;2023-04-03T04:56:26;4.60;99.90
20815;DHT22;10568;48.176;16.316;2023-04-03T04:58:52;4.60;99.90
20815;DHT22;10568;48.176;16.316;2023-04-03T05:01:17;4.60;99.90
20815;DHT22;10568;48.176;16.316;2023-04-03T05:03:44;4.60;99.90
20815;DHT22;10568;48.176;16.316;2023-04-03T05:06:10;4.60;99.90
20815;DHT22;10568;48.176;16.316;2023-04-03T05:08:36;4.60;99.90
20815;DHT22;10568;48.176;16.316;2023-04-03T05:11:01;4.60;99.90
20815;DHT22;10568;48.176;16.316;2023-04-03T05:13:27;4.60;99.90
20815;DHT22;10568;48.176;16.316;2023-04-03T05:15:53;4.60;99.90
20815;DHT22;10568;48.176;16.316;2023-04-03T05:18:19;4.60;99.90
20815;DHT22;10568;48.176;16.316;2023-04-03T05:20:45;4.60;99.90
20815;DHT22;10568;48.176;16.316;2023-04-03T05:23:11;4.60;99.90
20815;DHT22;10568;48.176;16.316;2023-04-03T05:25:40;4.50;99.90
20815;DHT22;10568;48.176;16.316;2023-04-03T05:28:06;4.60;99.90
20815;DHT22;10568;48.176;16.316;2023-04-03T05:30:32;4.60;99.90
20815;DHT22;10568;48.176;16.316;2023-04-03T05:32:59;4.60;99.90
20815;DHT22;10568;48.176;16.316;2023-04-03T05:35:25;4.60;99.90
20815;DHT22;10568;48.176;16.316;2023-04-03T05:37:51;4.50;99.90
20815;DHT22;10568;48.176;16.316;2023-04-03T05:40:16;4.50;99.90
20815;DHT22;10568;48.176;16.316;2023-04-03T05:42:44;4.60;99.90
20815;DHT22;10568;48.176;16.316;2023-04-03T05:45:10;4.60;99.90
20815;DHT22;10568;48.176;16.316;2023-04-03T05:47:36;4.70;99.90
20815;DHT22;10568;48.176;16.316;2023-04-03T05:50:02;4.70;99.90
20815;DHT22;10568;48.176;16.316;2023-04-03T05:52:33;4.70;99.90
20815;DHT22;10568;48.176;16.316;2023-04-03T05:55:00;4.70;99.90
20815;DHT22;10568;48.176;16.316;2023-04-03T05:57:26;4.80;99.90
20815;DHT22;10568;48.176;16.316;2023-04-03T05:59:52;4.80;99.90
20815;DHT22;10568;48.176;16.316;2023-04-03T06:02:20;4.80;99.90
20815;DHT22;10568;48.176;16.316;2023-04-03T06:04:47;4.80;99.90
20815;DHT22;10568;48.176;16.316;2023-04-03T06:07:21;4.90;99.90
20815;DHT22;10568;48.176;16.316;2023-04-03T06:09:49;4.80;99.90
20815;DHT22;10568;48.176;16.316;2023-04-03T06:12:16;4.90;99.90
20815;DHT22;10568;48.176;16.316;2023-04-03T06:14:42;5.00;99.90
20815;DHT22;10568;48.176;16.316;2023-04-03T06:17:08;4.90;99.90
20815;DHT22;10568;48.176;16.316;2023-04-03T06:19:35;4.80;99.90
20815;DHT22;10568;48.176;16.316;2023-04-03T06:22:01;4.90;99.90
20815;DHT22;10568;48.176;16.316;2023-04-03T06:24:28;4.90;99.90
20815;DHT22;10568;48.176;16.316;2023-04-03T06:26:54;4.90;99.90
20815;DHT22;10568;48.176;16.316;2023-04-03T06:29:22;5.00;99.90
20815;DHT22;10568;48.176;16.316;2023-04-03T06:31:48;5.00;99.90
20815;DHT22;10568;48.176;16.316;2023-04-03T06:34:14;5.00;99.90
20815;DHT22;10568;48.176;16.316;2023-04-03T06:36:41;5.10;99.90
20815;DHT22;10568;48.176;16.316;2023-04-03T06:39:10;5.10;99.90
20815;DHT22;10568;48.176;16.316;2023-04-03T06:41:38;5.10;99.90
20815;DHT22;10568;48.176;16.316;2023-04-03T06:44:04;5.00;99.90
20815;DHT22;10568;48.176;16.316;2023-04-03T06:46:30;5.20;99.90
20815;DHT22;10568;48.176;16.316;2023-04-03T06:48:56;5.10;99.90
20815;DHT22;10568;48.176;16.316;2023-04-03T06:51:26;5.00;99.90
20815;DHT22;10568;48.176;16.316;2023-04-03T06:53:55;5.10;99.90
20815;DHT22;10568;48.176;16.316;2023-04-03T06:56:22;5.00;99.90
20815;DHT22;10568;48.176;16.316;2023-04-03T06:58:48;5.10;99.90
20815;DHT22;10568;48.176;16.316;2023-04-03T07:01:16;5.10;99.90
20815;DHT22;10568;48.176;16.316;2023-04-03T07:03:43;5.00;99.90
20815;DHT22;10568;48.176;16.316;2023-04-03T07:06:11;5.00;99.90
20815;DHT22;10568;48.176;16.316;2023-04-03T07:08:37;5.10;99.90
20815;DHT22;10568;48.176;16.316;2023-04-03T07:11:04;5.10;99.90
20815;DHT22;10568;48.176;16.316;2023-04-03T07:13:30;5.00;99.90
20815;DHT22;10568;48.176;16.316;2023-04-03T07:15:56;5.00;99.90
20815;DHT22;10568;48.176;16.316;2023-04-03T07:18:23;5.00;99.90
20815;DHT22;10568;48.176;16.316;2023-04-03T07:20:49;5.10;99.90
20815;DHT22;10568;48.176;16.316;2023-04-03T07:23:15;5.00;99.90
20815;DHT22;10568;48.176;16.316;2023-04-03T07:25:46;5.00;99.90
20815;DHT22;10568;48.176;16.316;2023-04-03T07:28:13;5.20;99.90
20815;DHT22;10568;48.176;16.316;2023-04-03T07:30:44;5.30;99.90
20815;DHT22;10568;48.176;16.316;2023-04-03T07:33:10;5.30;99.90
20815;DHT22;10568;48.176;16.316;2023-04-03T07:35:37;5.50;99.90
20815;DHT22;10568;48.176;16.316;2023-04-03T07:38:03;5.70;99.90
20815;DHT22;10568;48.176;16.316;2023-04-03T07:40:28;5.60;99.90
20815;DHT22;10568;48.176;16.316;2023-04-03T07:42:54;5.70;99.90
20815;DHT22;10568;48.176;16.316;2023-04-03T07:45:22;5.90;99.90
20815;DHT22;10568;48.176;16.316;2023-04-03T07:47:49;6.10;99.90
20815;DHT22;10568;48.176;16.316;2023-04-03T07:50:15;6.40;99.90
20815;DHT22;10568;48.176;16.316;2023-04-03T07:52:41;6.70;99.90
20815;DHT22;10568;48.176;16.316;2023-04-03T07:55:07;6.60;99.90
20815;DHT22;10568;48.176;16.316;2023-04-03T07:57:33;6.70;99.90
20815;DHT22;10568;48.176;16.316;2023-04-03T07:59:59;6.30;99.90
20815;DHT22;10568;48.176;16.316;2023-04-03T08:02:25;6.30;99.90
20815;DHT22;10568;48.176;16.316;2023-04-03T08:04:51;6.40;99.90
20815;DHT22;10568;48.176;16.316;2023-04-03T08:07:16;6.60;99.90
20815;DHT22;10568;48.176;16.316;2023-04-03T08:09:42;6.40;99.90
20815;DHT22;10568;48.176;16.316;2023-04-03T08:12:08;6.30;99.90
20815;DHT22;10568;48.176;16.316;2023-04-03T08:14:36;6.70;99.90
20815;DHT22;10568;48.176;16.316;2023-04-03T08:17:03;7.00;99.90
20815;DHT22;10568;48.176;16.316;2023-04-03T08:19:30;7.20;99.90
20815;DHT22;10568;48.176;16.316;2023-04-03T08:21:56;7.60;99.90
20815;DHT22;10568;48.176;16.316;2023-04-03T08:24:24;7.80;99.90
20815;DHT22;10568;48.176;16.316;2023-04-03T08:26:50;7.90;99.90
20815;DHT22;10568;48.176;16.316;2023-04-03T08:29:16;8.20;99.90
20815;DHT22;10568;48.176;16.316;2023-04-03T08:31:42;8.40;99.90
20815;DHT22;10568;48.176;16.316;2023-04-03T08:34:08;9.00;99.90
20815;DHT22;10568;48.176;16.316;2023-04-03T08:36:34;9.50;99.90
20815;DHT22;10568;48.176;16.316;2023-04-03T08:39:00;9.30;99.90
20815;DHT22;10568;48.176;16.316;2023-04-03T08:41:35;8.90;99.90
20815;DHT22;10568;48.176;16.316;2023-04-03T08:46:43;9.10;99.90
20815;DHT22;10568;48.176;16.316;2023-04-03T08:49:23;8.90;99.90
20815;DHT22;10568;48.176;16.316;2023-04-03T08:51:50;8.60;99.90
20815;DHT22;10568;48.176;16.316;2023-04-03T08:54:30;8.20;99.90
20815;DHT22;10568;48.176;16.316;2023-04-03T08:57:00;7.70;99.90
20815;DHT22;10568;48.176;16.316;2023-04-03T08:59:34;8.00;99.90
20815;DHT22;10568;48.176;16.316;2023-04-03T09:02:21;8.70;99.90
20815;DHT22;10568;48.176;16.316;2023-04-03T09:04:48;9.10;99.90
20815;DHT22;10568;48.176;16.316;2023-04-03T09:07:43;9.80;99.90
20815;DHT22;10568;48.176;16.316;2023-04-03T09:10:08;10.40;99.90
20815;DHT22;10568;48.176;16.316;2023-04-03T09:12:41;9.40;99.50
20815;DHT22;10568;48.176;16.316;2023-04-03T09:15:23;9.60;99.90
20815;DHT22;10568;48.176;16.316;2023-04-03T09:17:53;9.70;99.90
20815;DHT22;10568;48.176;16.316;2023-04-03T09:26:02;8.50;99.60
20815;DHT22;10568;48.176;16.316;2023-04-03T09:28:33;8.20;98.60
20815;DHT22;10568;48.176;16.316;2023-04-03T09:31:05;8.20;98.10
20815;DHT22;10568;48.176;16.316;2023-04-03T09:33:37;8.00;99.40
20815;DHT22;10568;48.176;16.316;2023-04-03T09:36:04;7.90;99.90
20815;DHT22;10568;48.176;16.316;2023-04-03T09:38:31;7.40;97.10
20815;DHT22;10568;48.176;16.316;2023-04-03T09:41:13;7.20;98.60
20815;DHT22;10568;48.176;16.316;2023-04-03T09:43:52;7.70;99.90
20815;DHT22;10568;48.176;16.316;2023-04-03T09:46:30;7.70;99.90
20815;DHT22;10568;48.176;16.316;2023-04-03T09:49:02;7.80;99.90
20815;DHT22;10568;48.176;16.316;2023-04-03T09:51:30;7.50;99.90
20815;DHT22;10568;48.176;16.316;2023-04-03T09:53:57;7.70;98.60
20815;DHT22;10568;48.176;16.316;2023-04-03T09:56:31;7.50;97.00
20815;DHT22;10568;48.176;16.316;2023-04-03T10:01:33;7.90;99.90
20815;DHT22;10568;48.176;16.316;2023-04-03T10:04:17;7.60;99.90
20815;DHT22;10568;48.176;16.316;2023-04-03T10:06:54;7.30;99.90
20815;DHT22;10568;48.176;16.316;2023-04-03T10:09:24;7.20;99.50
20815;DHT22;10568;48.176;16.316;2023-04-03T10:12:11;7.10;99.90
20815;DHT22;10568;48.176;16.316;2023-04-03T10:14:39;7.10;99.90
20815;DHT22;10568;48.176;16.316;2023-04-03T10:17:36;6.80;99.90
20815;DHT22;10568;48.176;16.316;2023-04-03T10:31:37;6.50;99.90
20815;DHT22;10568;48.176;16.316;2023-04-03T10:34:21;6.30;99.90
20815;DHT22;10568;48.176;16.316;2023-04-03T10:58:02;6.40;99.90
20815;DHT22;10568;48.176;16.316;2023-04-03T11:01:01;6.40;99.90
20815;DHT22;10568;48.176;16.316;2023-04-03T11:03:30;6.60;98.90
20815;DHT22;10568;48.176;16.316;2023-04-03T11:06:18;6.70;99.90
20815;DHT22;10568;48.176;16.316;2023-04-03T11:08:59;6.70;97.90
20815;DHT22;10568;48.176;16.316;2023-04-03T11:11:34;6.80;98.40
20815;DHT22;10568;48.176;16.316;2023-04-03T11:14:22;7.00;99.10
20815;DHT22;10568;48.176;16.316;2023-04-03T11:19:41;6.80;97.40
20815;DHT22;10568;48.176;16.316;2023-04-03T11:22:23;6.80;97.10
20815;DHT22;10568;48.176;16.316;2023-04-03T11:27:46;6.60;97.40
20815;DHT22;10568;48.176;16.316;2023-04-03T11:35:58;6.70;98.70
20815;DHT22;10568;48.176;16.316;2023-04-03T11:38:36;6.90;99.80
20815;DHT22;10568;48.176;16.316;2023-04-03T11:41:07;6.90;96.20
20815;DHT22;10568;48.176;16.316;2023-04-03T11:43:37;6.50;94.80
20815;DHT22;10568;48.176;16.316;2023-04-03T11:46:07;6.70;97.30
20815;DHT22;10568;48.176;16.316;2023-04-03T11:53:38;7.00;96.00
20815;DHT22;10568;48.176;16.316;2023-04-03T12:01:48;7.30;96.60
20815;DHT22;10568;48.176;16.316;2023-04-03T12:04:16;7.40;96.50
20815;DHT22;10568;48.176;16.316;2023-04-03T12:09:34;7.40;93.10
20815;DHT22;10568;48.176;16.316;2023-04-03T12:12:37;7.50;95.40
20815;DHT22;10568;48.176;16.316;2023-04-03T12:18:41;6.40;92.40
20815;DHT22;10568;48.176;16.316;2023-04-03T12:21:09;6.40;94.50
20815;DHT22;10568;48.176;16.316;2023-04-03T12:23:36;6.10;92.60
20815;DHT22;10568;48.176;16.316;2023-04-03T12:26:25;6.30;95.40
20815;DHT22;10568;48.176;16.316;2023-04-03T12:28:54;6.30;95.80
20815;DHT22;10568;48.176;16.316;2023-04-03T12:31:24;6.30;95.60
20815;DHT22;10568;48.176;16.316;2023-04-03T12:37:03;6.00;93.20
20815;DHT22;10568;48.176;16.316;2023-04-03T12:45:22;5.90;91.70
20815;DHT22;10568;48.176;16.316;2023-04-03T12:47:49;6.10;94.40
20815;DHT22;10568;48.176;16.316;2023-04-03T12:50:28;6.30;94.60
20815;DHT22;10568;48.176;16.316;2023-04-03T12:53:06;6.20;93.00
20815;DHT22;10568;48.176;16.316;2023-04-03T12:55:38;6.40;93.80
20815;DHT22;10568;48.176;16.316;2023-04-03T12:58:23;6.30;94.00
20815;DHT22;10568;48.176;16.316;2023-04-03T13:01:03;6.20;91.50
20815;DHT22;10568;48.176;16.316;2023-04-03T13:03:30;6.40;95.20
20815;DHT22;10568;48.176;16.316;2023-04-03T13:06:01;6.40;96.00
20815;DHT22;10568;48.176;16.316;2023-04-03T13:08:28;6.50;91.90
20815;DHT22;10568;48.176;16.316;2023-04-03T13:11:08;6.90;93.00
20815;DHT22;10568;48.176;16.316;2023-04-03T13:13:35;6.90;92.50
20815;DHT22;10568;48.176;16.316;2023-04-03T13:16:10;6.90;91.60
20815;DHT22;10568;48.176;16.316;2023-04-03T13:18:37;6.90;92.20
20815;DHT22;10568;48.176;16.316;2023-04-03T13:23:32;6.80;92.30
20815;DHT22;10568;48.176;16.316;2023-04-03T13:26:00;7.00;91.90
20815;DHT22;10568;48.176;16.316;2023-04-03T13:28:30;7.10;92.30
20815;DHT22;10568;48.176;16.316;2023-04-03T13:31:15;7.10;92.10
20815;DHT22;10568;48.176;16.316;2023-04-03T13:36:23;7.70;91.60
20815;DHT22;10568;48.176;16.316;2023-04-03T13:41:35;8.10;88.60
20815;DHT22;10568;48.176;16.316;2023-04-03T13:49:44;6.80;87.70
20815;DHT22;10568;48.176;16.316;2023-04-03T13:52:38;6.70;87.20
20815;DHT22;10568;48.176;16.316;2023-04-03T13:55:26;7.40;93.00
20815;DHT22;10568;48.176;16.316;2023-04-03T13:58:00;7.50;88.90
20815;DHT22;10568;48.176;16.316;2023-04-03T14:02:57;7.30;91.10
20815;DHT22;10568;48.176;16.316;2023-04-03T14:05:24;7.20;91.30
20815;DHT22;10568;48.176;16.316;2023-04-03T14:07:51;6.90;90.30
20815;DHT22;10568;48.176;16.316;2023-04-03T14:10:17;6.90;92.80
20815;DHT22;10568;48.176;16.316;2023-04-03T14:12:43;6.80;91.70
20815;DHT22;10568;48.176;16.316;2023-04-03T14:15:26;6.60;92.50
20815;DHT22;10568;48.176;16.316;2023-04-03T14:17:53;6.50;91.20
20815;DHT22;10568;48.176;16.316;2023-04-03T14:20:21;6.50;92.20
20815;DHT22;10568;48.176;16.316;2023-04-03T14:22:48;7.00;93.10
20815;DHT22;10568;48.176;16.316;2023-04-03T14:25:15;6.90;90.40
20815;DHT22;10568;48.176;16.316;2023-04-03T14:27:44;6.90;90.50
20815;DHT22;10568;48.176;16.316;2023-04-03T14:30:17;6.80;90.70
20815;DHT22;10568;48.176;16.316;2023-04-03T14:32:44;6.60;91.20
20815;DHT22;10568;48.176;16.316;2023-04-03T14:35:10;6.60;91.90
20815;DHT22;10568;48.176;16.316;2023-04-03T14:37:36;6.40;90.20
20815;DHT22;10568;48.176;16.316;2023-04-03T14:40:04;6.40;91.30
20815;DHT22;10568;48.176;16.316;2023-04-03T14:42:33;6.30;91.10
20815;DHT22;10568;48.176;16.316;2023-04-03T14:45:01;6.10;91.10
20815;DHT22;10568;48.176;16.316;2023-04-03T14:47:29;6.20;91.70
20815;DHT22;10568;48.176;16.316;2023-04-03T14:49:56;6.10;92.00
20815;DHT22;10568;48.176;16.316;2023-04-03T14:52:29;6.10;91.50
20815;DHT22;10568;48.176;16.316;2023-04-03T14:54:55;6.00;93.20
20815;DHT22;10568;48.176;16.316;2023-04-03T14:57:24;6.20;93.50
20815;DHT22;10568;48.176;16.316;2023-04-03T14:59:50;6.30;90.50
20815;DHT22;10568;48.176;16.316;2023-04-03T15:04:56;6.00;91.30
20815;DHT22;10568;48.176;16.316;2023-04-03T15:07:23;6.00;91.10
20815;DHT22;10568;48.176;16.316;2023-04-03T15:09:50;5.90;91.30
20815;DHT22;10568;48.176;16.316;2023-04-03T15:12:16;6.00;93.60
20815;DHT22;10568;48.176;16.316;2023-04-03T15:14:41;5.90;91.30
20815;DHT22;10568;48.176;16.316;2023-04-03T15:17:17;5.80;91.10
20815;DHT22;10568;48.176;16.316;2023-04-03T15:19:44;5.80;90.80
20815;DHT22;10568;48.176;16.316;2023-04-03T15:22:15;5.90;90.40
20815;DHT22;10568;48.176;16.316;2023-04-03T15:24:42;6.00;91.30
20815;DHT22;10568;48.176;16.316;2023-04-03T15:27:08;6.10;92.50
20815;DHT22;10568;48.176;16.316;2023-04-03T15:29:34;6.00;93.30
20815;DHT22;10568;48.176;16.316;2023-04-03T15:32:00;5.90;90.90
20815;DHT22;10568;48.176;16.316;2023-04-03T15:34:26;5.80;91.00
20815;DHT22;10568;48.176;16.316;2023-04-03T15:36:53;5.70;90.30
20815;DHT22;10568;48.176;16.316;2023-04-03T15:39:18;5.90;92.20
20815;DHT22;10568;48.176;16.316;2023-04-03T15:41:46;5.80;90.80
20815;DHT22;10568;48.176;16.316;2023-04-03T15:44:11;5.80;90.70
20815;DHT22;10568;48.176;16.316;2023-04-03T15:46:38;5.80;91.30
20815;DHT22;10568;48.176;16.316;2023-04-03T15:49:04;5.60;90.80
20815;DHT22;10568;48.176;16.316;2023-04-03T15:51:31;5.50;90.70
20815;DHT22;10568;48.176;16.316;2023-04-03T15:53:57;5.40;88.90
20815;DHT22;10568;48.176;16.316;2023-04-03T15:56:22;5.40;90.30
20815;DHT22;10568;48.176;16.316;2023-04-03T15:58:48;5.20;90.00
20815;DHT22;10568;48.176;16.316;2023-04-03T16:01:14;5.20;88.90
20815;DHT22;10568;48.176;16.316;2023-04-03T16:03:41;5.30;90.70
20815;DHT22;10568;48.176;16.316;2023-04-03T16:06:12;5.30;90.40
20815;DHT22;10568;48.176;16.316;2023-04-03T16:08:38;5.20;91.20
20815;DHT22;10568;48.176;16.316;2023-04-03T16:11:04;5.30;91.70
20815;DHT22;10568;48.176;16.316;2023-04-03T16:13:30;5.20;90.60
20815;DHT22;10568;48.176;16.316;2023-04-03T16:15:56;5.10;90.00
20815;DHT22;10568;48.176;16.316;2023-04-03T16:18:22;5.00;90.80
20815;DHT22;10568;48.176;16.316;2023-04-03T16:20:48;5.00;92.00
20815;DHT22;10568;48.176;16.316;2023-04-03T16:23:14;5.00;90.80
20815;DHT22;10568;48.176;16.316;2023-04-03T16:25:39;4.90;92.40
20815;DHT22;10568;48.176;16.316;2023-04-03T16:28:05;4.90;90.00
20815;DHT22;10568;48.176;16.316;2023-04-03T16:30:32;4.90;90.10
20815;DHT22;10568;48.176;16.316;2023-04-03T16:32:58;4.90;90.70
20815;DHT22;10568;48.176;16.316;2023-04-03T16:35:24;4.90;90.50
20815;DHT22;10568;48.176;16.316;2023-04-03T16:37:49;4.90;90.30
20815;DHT22;10568;48.176;16.316;2023-04-03T16:40:15;4.90;90.90
20815;DHT22;10568;48.176;16.316;2023-04-03T16:42:41;4.90;91.70
20815;DHT22;10568;48.176;16.316;2023-04-03T16:45:07;4.80;91.00
20815;DHT22;10568;48.176;16.316;2023-04-03T16:47:33;4.90;92.90
20815;DHT22;10568;48.176;16.316;2023-04-03T16:49:59;4.80;91.30
20815;DHT22;10568;48.176;16.316;2023-04-03T16:52:25;4.70;91.00
20815;DHT22;10568;48.176;16.316;2023-04-03T16:54:50;4.70;91.40
20815;DHT22;10568;48.176;16.316;2023-04-03T16:57:21;4.70;91.10
20815;DHT22;10568;48.176;16.316;2023-04-03T16:59:49;4.70;90.90
20815;DHT22;10568;48.176;16.316;2023-04-03T17:02:15;4.60;91.30
20815;DHT22;10568;48.176;16.316;2023-04-03T17:04:40;4.60;91.10
20815;DHT22;10568;48.176;16.316;2023-04-03T17:07:06;4.50;90.90
20815;DHT22;10568;48.176;16.316;2023-04-03T17:09:33;4.60;90.90
20815;DHT22;10568;48.176;16.316;2023-04-03T17:11:59;4.40;92.20
20815;DHT22;10568;48.176;16.316;2023-04-03T17:14:25;4.40;91.40
20815;DHT22;10568;48.176;16.316;2023-04-03T17:16:51;4.40;91.50
20815;DHT22;10568;48.176;16.316;2023-04-03T17:19:18;4.40;92.50
20815;DHT22;10568;48.176;16.316;2023-04-03T17:21:44;4.40;92.00